Van Kinsbergen — PAKB — position and weather

sailwx.info

Track history (hours):
 
Tides and Currents Weather Stations Pressure Air Temp Water Temp Dewpoint Dewpoint Depression Visibility Wind Speed Wind Dir Waves Ship Positions

Van Kinsbergen

Last reported at 2016-May-26 12:25 UTC. Time now 2016-May-26 12:39 UTC.
Position N 52°58' E 004°47'.

Length 40 m; draft 3.1 m.

MMSI: 244736000.

Date/timePositionNaut miles runAvg speedWind from/ knotsBaromVisibWave heightAir tempDewpointWater temp
2016-May-26 12:25N 52°58' E 004°47'1 1.7
2016-May-26 11:32N 52°59' E 004°45'0 0.3
2016-May-26 10:28N 52°58' E 004°45'1 1.3
2016-May-26 09:30N 52°59' E 004°47'1 1.3
2016-May-26 08:34N 52°58' E 004°47'1 1.3
2016-May-26 07:33N 52°59' E 004°47'1 0.1
2016-May-25 13:32N 52°58' E 004°47'1 1.4
2016-May-25 12:33N 52°59' E 004°45'3 3.0
2016-May-25 11:33N 52°57' E 004°41'4 3.7
2016-May-25 10:23N 52°52' E 004°41'0 0.0
2016-May-25 09:26N 52°52' E 004°41'0 0.0
2016-May-25 08:13N 52°52' E 004°41'5 7.6
2016-May-25 07:33N 52°57' E 004°42'3 0.1
2016-May-24 03:32N 52°58' E 004°47'0 0.0
2016-May-23 22:23N 52°58' E 004°47'0 0.0
2016-May-23 17:26N 52°58' E 004°47'0 0.0
2016-May-23 13:14N 52°58' E 004°47'3 4.0
2016-May-23 12:33N 52°60' E 004°49'4 3.6
2016-May-23 11:27N 53°03' E 004°54'5 5.1
2016-May-23 10:31N 52°59' E 004°48'0 0.1
2016-May-23 09:33N 52°59' E 004°48'2 0.3
2016-May-23 03:06N 52°58' E 004°47'0 0.0
2016-May-22 07:24N 52°58' E 004°47'0 0.0
2016-May-22 03:24N 52°58' E 004°47'0 0.0
2016-May-22 01:30N 52°58' E 004°47'0 0.0
2016-May-21 09:27N 52°58' E 004°47'0 0.0
2016-May-21 02:12N 52°58' E 004°47'0 0.0
2016-May-20 13:12N 52°58' E 004°47'0 0.0
2016-May-20 00:27N 52°58' E 004°47'0 0.0
2016-May-19 21:30N 52°58' E 004°47'0 0.0
2016-May-19 20:18N 52°58' E 004°47'0 0.0
2016-May-19 19:33N 52°58' E 004°47'0 0.0
2016-May-19 18:33N 52°58' E 004°47'0 0.0
2016-May-19 17:33N 52°58' E 004°47'0 0.0
2016-May-19 12:15N 52°58' E 004°47'0 0.0
2016-May-19 09:06N 52°58' E 004°47'0 0.0
2016-May-19 08:15N 52°58' E 004°47'0 0.0
2016-May-19 01:30N 52°58' E 004°47'0 0.0
2016-May-18 21:27N 52°58' E 004°47'0 0.0
2016-May-18 20:18N 52°58' E 004°47'0 0.0
2016-May-18 18:27N 52°58' E 004°47'0 0.0
2016-May-18 07:03N 52°58' E 004°47'0 0.0
2016-May-17 22:03N 52°58' E 004°47'0 0.0
2016-May-17 21:33N 52°58' E 004°47'0 0.0
2016-May-16 20:27N 52°58' E 004°47'  
Track history (hours):
 
Tides and Currents Weather Stations Pressure Air Temp Water Temp Dewpoint Dewpoint Depression Visibility Wind Speed Wind Dir Waves Ship Positions

Van Kinsbergen

Last reported at 2016-May-26 12:25 UTC. Time now 2016-May-26 12:39 UTC.
Position N 52°58' E 004°47'.

Length 40 m; draft 3.1 m.

MMSI: 244736000.

Date/timePositionNaut miles runAvg speedWind from/ knotsBaromVisibWave heightAir tempDewpointWater temp
2016-May-26 12:25N 52°58' E 004°47'1 1.7
2016-May-26 11:32N 52°59' E 004°45'0 0.3
2016-May-26 10:28N 52°58' E 004°45'1 1.3
2016-May-26 09:30N 52°59' E 004°47'1 1.3
2016-May-26 08:34N 52°58' E 004°47'1 1.3
2016-May-26 07:33N 52°59' E 004°47'1 0.1
2016-May-25 13:32N 52°58' E 004°47'1 1.4
2016-May-25 12:33N 52°59' E 004°45'3 3.0
2016-May-25 11:33N 52°57' E 004°41'4 3.7
2016-May-25 10:23N 52°52' E 004°41'0 0.0
2016-May-25 09:26N 52°52' E 004°41'0 0.0
2016-May-25 08:13N 52°52' E 004°41'5 7.6
2016-May-25 07:33N 52°57' E 004°42'3 0.1
2016-May-24 03:32N 52°58' E 004°47'0 0.0
2016-May-23 22:23N 52°58' E 004°47'0 0.0
2016-May-23 17:26N 52°58' E 004°47'0 0.0
2016-May-23 13:14N 52°58' E 004°47'3 4.0
2016-May-23 12:33N 52°60' E 004°49'4 3.6
2016-May-23 11:27N 53°03' E 004°54'5 5.1
2016-May-23 10:31N 52°59' E 004°48'0 0.1
2016-May-23 09:33N 52°59' E 004°48'2 0.3
2016-May-23 03:06N 52°58' E 004°47'0 0.0
2016-May-22 07:24N 52°58' E 004°47'0 0.0
2016-May-22 03:24N 52°58' E 004°47'0 0.0
2016-May-22 01:30N 52°58' E 004°47'0 0.0
2016-May-21 09:27N 52°58' E 004°47'0 0.0
2016-May-21 02:12N 52°58' E 004°47'0 0.0
2016-May-20 13:12N 52°58' E 004°47'0 0.0
2016-May-20 00:27N 52°58' E 004°47'0 0.0
2016-May-19 21:30N 52°58' E 004°47'0 0.0
2016-May-19 20:18N 52°58' E 004°47'0 0.0
2016-May-19 19:33N 52°58' E 004°47'0 0.0
2016-May-19 18:33N 52°58' E 004°47'0 0.0
2016-May-19 17:33N 52°58' E 004°47'0 0.0
2016-May-19 12:15N 52°58' E 004°47'0 0.0
2016-May-19 09:06N 52°58' E 004°47'0 0.0
2016-May-19 08:15N 52°58' E 004°47'0 0.0
2016-May-19 01:30N 52°58' E 004°47'0 0.0
2016-May-18 21:27N 52°58' E 004°47'0 0.0
2016-May-18 20:18N 52°58' E 004°47'0 0.0
2016-May-18 18:27N 52°58' E 004°47'0 0.0
2016-May-18 07:03N 52°58' E 004°47'0 0.0
2016-May-17 22:03N 52°58' E 004°47'0 0.0
2016-May-17 21:33N 52°58' E 004°47'0 0.0
2016-May-16 20:27N 52°58' E 004°47'  

Dump ship's entire track history